Vienna, Maryland
Current Conditions -  °F | °C
As of 5:40 AM on Monday 22 Dec 2014 (Local Time) from KCGE Reporting Station
Clear Clear  
Wind Chill: 27°   Ceiling: Unl
Heat Index: 32°   Visibility: 10mi
Dew Point: 28°   Wind: 5mph
Humidity: 87%   Direction: 20°NNE
Pressure: 30.27"   Gusts: NA
Location:  38.48°N, 75.82°W
Report Text: KCGE 221040Z AUTO 02004KT 10SM CLR 00/M02 A3027 RMK AO1
Loading
Personal Weather Stations






























Interactive Weather Map New forecast layout! Learn more

10-Day Weather Forecast

Advertisements
Track Severe Weather on mobile